createdAt,value
2022-12-23T00:01:01.502Z,24.55
2022-12-23T00:04:08.745Z,26.09
2022-12-23T00:07:15.423Z,26.31
2022-12-23T00:10:21.429Z,24.93
2022-12-23T00:13:43.000Z,24.93
2022-12-23T00:16:51.904Z,25.01
2022-12-23T00:19:58.587Z,26.44
2022-12-23T00:23:10.404Z,26.90
2022-12-23T00:26:20.470Z,27.78
2022-12-23T00:29:26.493Z,27.62
2022-12-23T00:32:35.830Z,27.08
2022-12-23T00:35:41.531Z,26.70
2022-12-23T00:39:01.023Z,26.17
2022-12-23T00:42:19.320Z,26.77
2022-12-23T00:45:26.097Z,27.40
2022-12-23T00:48:47.055Z,27.22
2022-12-23T00:51:53.621Z,26.46
2022-12-23T00:54:59.428Z,27.96
2022-12-23T00:58:06.206Z,26.89
2022-12-23T01:01:24.437Z,26.50
2022-12-23T01:04:45.954Z,26.38
2022-12-23T01:07:51.887Z,26.23
2022-12-23T01:10:58.799Z,26.28
2022-12-23T01:14:04.819Z,27.26
2022-12-23T01:17:11.993Z,27.07
2022-12-23T01:20:20.681Z,26.44
2022-12-23T01:23:27.270Z,26.10
2022-12-23T01:26:33.113Z,26.38
2022-12-23T01:29:39.843Z,27.69
2022-12-23T01:32:45.726Z,30.02
2022-12-23T01:35:54.923Z,29.66
2022-12-23T01:39:00.762Z,30.13
2022-12-23T01:42:21.910Z,30.09
2022-12-23T01:53:34.632Z,33.68
2022-12-23T02:00:47.550Z,34.32
2022-12-23T02:04:01.648Z,36.53
2022-12-23T02:07:23.422Z,36.49
2022-12-23T02:11:06.440Z,37.48
2022-12-23T02:14:48.698Z,37.14
2022-12-23T02:18:16.098Z,37.19
2022-12-23T02:22:08.223Z,36.29
2022-12-23T02:25:57.727Z,36.28
2022-12-23T02:29:46.653Z,35.35
2022-12-23T02:33:23.543Z,33.94
2022-12-23T02:36:48.248Z,34.25
2022-12-23T02:40:07.952Z,33.48
2022-12-23T02:43:29.943Z,31.02
2022-12-23T02:46:45.395Z,28.75
2022-12-23T02:50:05.648Z,28.40
2022-12-23T02:53:21.912Z,28.03
2022-12-23T02:56:35.350Z,28.50
2022-12-23T02:59:51.828Z,28.01
2022-12-23T03:02:59.475Z,27.15
2022-12-23T03:06:24.037Z,26.10
2022-12-23T03:09:49.924Z,25.54
2022-12-23T03:13:20.045Z,25.65
2022-12-23T03:16:34.913Z,25.73
2022-12-23T03:19:54.740Z,24.68
2022-12-23T03:23:18.859Z,26.46
2022-12-23T03:26:42.068Z,25.48
2022-12-23T03:30:04.044Z,25.16
2022-12-23T03:33:18.957Z,25.15
2022-12-23T03:36:34.763Z,25.41
2022-12-23T03:39:52.501Z,24.67
2022-12-23T03:43:07.720Z,24.26
2022-12-23T03:46:23.106Z,25.07
2022-12-23T03:49:38.897Z,25.36
2022-12-23T03:52:54.815Z,24.45
2022-12-23T03:56:13.367Z,23.88
2022-12-23T03:59:27.165Z,23.02
2022-12-23T04:02:55.324Z,22.21
2022-12-23T04:06:08.823Z,22.06
2022-12-23T04:09:22.232Z,20.48
2022-12-23T04:12:33.512Z,18.47
2022-12-23T04:15:44.892Z,17.21
2022-12-23T04:18:50.771Z,17.35
2022-12-23T04:21:59.968Z,16.61
2022-12-23T04:25:19.134Z,16.04
2022-12-23T04:28:28.286Z,16.28
2022-12-23T04:31:34.383Z,15.73
2022-12-23T04:34:40.919Z,16.03
2022-12-23T04:37:46.616Z,14.86
2022-12-23T04:40:53.282Z,13.95
2022-12-23T04:44:01.705Z,14.47
2022-12-23T04:47:11.243Z,14.70
2022-12-23T04:50:20.688Z,15.12
2022-12-23T04:53:27.258Z,15.02
2022-12-23T04:56:33.137Z,13.69
2022-12-23T04:59:42.417Z,14.22
2022-12-23T05:02:48.372Z,13.16
2022-12-23T05:05:55.061Z,12.82
2022-12-23T05:09:00.812Z,13.86
2022-12-23T05:12:10.824Z,11.77
2022-12-23T05:15:19.327Z,10.58
2022-12-23T05:18:27.772Z,11.23
2022-12-23T05:21:33.763Z,11.74
2022-12-23T05:24:40.332Z,12.59
2022-12-23T05:27:46.459Z,13.10
2022-12-23T05:31:02.053Z,12.61
2022-12-23T05:34:10.946Z,12.04
2022-12-23T05:37:17.589Z,12.98
2022-12-23T05:40:25.729Z,12.75
2022-12-23T05:43:38.491Z,12.76
2022-12-23T05:46:46.841Z,12.74
2022-12-23T05:49:53.365Z,12.60
2022-12-23T05:53:00.142Z,13.89
2022-12-23T05:56:09.021Z,13.88
2022-12-23T05:59:15.062Z,14.11
2022-12-23T06:02:24.966Z,13.54
2022-12-23T06:05:31.485Z,12.94
2022-12-23T06:08:38.307Z,13.52
2022-12-23T06:11:44.110Z,15.10
2022-12-23T06:14:53.179Z,15.54
2022-12-23T06:18:01.949Z,15.59
2022-12-23T06:21:11.501Z,14.80
2022-12-23T06:24:17.307Z,16.23
2022-12-23T06:27:24.103Z,16.69
2022-12-23T06:30:29.938Z,17.53
2022-12-23T06:33:39.237Z,17.57
2022-12-23T06:36:45.052Z,17.53
2022-12-23T06:39:51.674Z,18.71
2022-12-23T06:42:57.588Z,18.34
2022-12-23T06:46:04.274Z,20.24
2022-12-23T06:49:15.028Z,19.89
2022-12-23T06:52:23.163Z,19.31
2022-12-23T06:55:32.662Z,18.83
2022-12-23T06:58:40.629Z,15.78
2022-12-23T07:01:49.384Z,14.51
2022-12-23T07:04:58.631Z,15.74
2022-12-23T07:08:04.488Z,16.13
2022-12-23T07:11:11.411Z,14.29
2022-12-23T07:14:17.729Z,13.87
2022-12-23T07:17:24.387Z,13.91
2022-12-23T07:20:32.789Z,14.09
2022-12-23T07:23:39.558Z,13.16
2022-12-23T07:26:45.367Z,12.97
2022-12-23T07:29:52.067Z,13.06
2022-12-23T07:32:57.849Z,13.81
2022-12-23T07:36:07.826Z,16.12
2022-12-23T07:39:14.429Z,16.95
2022-12-23T07:42:50.937Z,19.21
2022-12-23T07:45:46.873Z,19.38
2022-12-23T07:48:53.508Z,17.67
2022-12-23T07:52:01.841Z,17.53
2022-12-23T07:55:10.097Z,16.28
2022-12-23T07:58:15.884Z,14.95
2022-12-23T08:01:24.186Z,15.18
2022-12-23T08:04:30.607Z,15.37
2022-12-23T08:07:40.187Z,15.50
2022-12-23T08:10:48.566Z,15.81
2022-12-23T08:13:55.814Z,16.13
2022-12-23T08:17:02.009Z,16.76
2022-12-23T08:20:10.990Z,17.16
2022-12-23T08:23:24.559Z,17.22
2022-12-23T08:26:31.606Z,18.67
2022-12-23T08:29:37.474Z,19.94
2022-12-23T08:32:44.096Z,20.03
2022-12-23T08:35:50.557Z,21.92
2022-12-23T08:39:02.995Z,21.59
2022-12-23T08:42:08.998Z,19.12
2022-12-23T08:45:17.245Z,18.88
2022-12-23T08:48:23.161Z,17.72
2022-12-23T08:51:31.286Z,18.60
2022-12-23T08:54:39.703Z,18.84
2022-12-23T08:57:46.242Z,19.88
2022-12-23T09:00:52.255Z,19.97
2022-12-23T09:03:59.605Z,20.91
2022-12-23T09:07:06.210Z,21.02
2022-12-23T09:10:15.423Z,20.20
2022-12-23T09:13:30.840Z,21.37
2022-12-23T09:16:42.250Z,19.51
2022-12-23T09:19:52.723Z,20.04
2022-12-23T09:22:59.867Z,20.69
2022-12-23T09:26:09.950Z,24.06
2022-12-23T09:29:16.666Z,23.06
2022-12-23T09:32:22.415Z,22.43
2022-12-23T09:35:29.157Z,24.47
2022-12-23T09:38:36.325Z,24.51
2022-12-23T09:42:09.257Z,22.19
2022-12-23T09:45:44.310Z,19.98
2022-12-23T09:49:05.662Z,20.37
2022-12-23T09:52:26.883Z,19.77
2022-12-23T09:55:49.175Z,19.56
2022-12-23T09:59:15.412Z,18.50
2022-12-23T10:02:48.299Z,18.01
2022-12-23T10:06:11.525Z,16.61
2022-12-23T10:09:21.780Z,14.97
2022-12-23T10:12:41.358Z,15.72
2022-12-23T10:15:55.463Z,14.68
2022-12-23T10:19:10.476Z,14.93
2022-12-23T10:22:27.453Z,14.31
2022-12-23T10:25:53.649Z,12.72
2022-12-23T10:29:19.222Z,13.63
2022-12-23T10:32:52.372Z,14.96
2022-12-23T10:36:15.753Z,13.73
2022-12-23T10:39:41.836Z,14.72
2022-12-23T10:43:06.340Z,14.75
2022-12-23T10:46:29.458Z,15.52
2022-12-23T10:50:04.711Z,17.12
2022-12-23T10:53:27.415Z,17.38
2022-12-23T10:56:35.772Z,19.27
2022-12-23T10:59:41.768Z,22.23
2022-12-23T11:03:15.394Z,22.56
2022-12-23T11:06:24.880Z,23.96
2022-12-23T11:09:42.764Z,24.68
2022-12-23T11:12:52.295Z,25.28
2022-12-23T11:16:19.948Z,25.32
2022-12-23T11:19:25.904Z,24.69
2022-12-23T11:34:54.996Z,24.61
2022-12-23T11:38:24.633Z,24.85
2022-12-23T11:41:38.173Z,30.75
2022-12-23T11:44:51.698Z,26.10
2022-12-23T11:47:59.285Z,23.81
2022-12-23T11:51:07.710Z,24.26
2022-12-23T11:54:23.561Z,25.58
2022-12-23T11:57:45.315Z,25.46
2022-12-23T12:00:59.460Z,26.78
2022-12-23T12:04:12.184Z,25.73
2022-12-23T12:07:22.127Z,24.99
2022-12-23T12:10:37.565Z,25.61
2022-12-23T12:13:48.189Z,27.14
2022-12-23T12:17:06.898Z,26.93
2022-12-23T12:20:29.294Z,25.20
2022-12-23T12:23:47.154Z,24.17
2022-12-23T12:27:04.934Z,23.90
2022-12-23T12:30:21.386Z,23.41
2022-12-23T12:33:38.852Z,20.23
2022-12-23T12:36:58.315Z,18.75
2022-12-23T12:40:11.258Z,17.52
2022-12-23T12:43:32.686Z,17.45
2022-12-23T12:46:49.029Z,18.98
2022-12-23T12:50:05.147Z,19.90
2022-12-23T12:53:21.878Z,19.97
2022-12-23T12:56:38.016Z,19.65
2022-12-23T12:59:52.156Z,21.13
2022-12-23T13:03:41.120Z,19.86
2022-12-23T13:07:10.585Z,20.34
2022-12-23T13:10:41.346Z,24.38
2022-12-23T13:14:05.108Z,23.98
2022-12-23T13:17:26.661Z,27.89
2022-12-23T13:20:45.292Z,27.67
2022-12-23T13:24:04.377Z,20.68
2022-12-23T13:27:19.660Z,17.85
2022-12-23T13:30:35.099Z,16.93
2022-12-23T13:34:01.196Z,18.83
2022-12-23T13:37:27.755Z,17.97
2022-12-23T13:40:47.563Z,17.92
2022-12-23T13:44:02.299Z,18.27
2022-12-23T13:47:26.367Z,19.70
2022-12-23T13:50:47.810Z,20.67
2022-12-23T13:54:14.865Z,20.39
2022-12-23T13:57:48.270Z,20.96
2022-12-23T14:01:22.249Z,20.90
2022-12-23T14:04:39.670Z,20.74
2022-12-23T14:07:48.480Z,21.54
2022-12-23T14:11:00.393Z,22.89
2022-12-23T14:14:17.885Z,23.73
2022-12-23T14:17:40.211Z,23.98
2022-12-23T14:20:58.863Z,23.32
2022-12-23T14:24:48.506Z,23.87
2022-12-23T14:28:16.373Z,23.79
2022-12-23T14:31:46.410Z,22.40
2022-12-23T14:35:23.148Z,22.67
2022-12-23T14:38:33.923Z,26.76
2022-12-23T14:41:52.777Z,26.65
2022-12-23T14:45:36.845Z,26.13
2022-12-23T14:49:38.195Z,28.24
2022-12-23T14:53:01.741Z,27.10
2022-12-23T14:56:26.478Z,32.11
2022-12-23T14:59:51.542Z,26.35
2022-12-23T15:03:03.659Z,25.83
2022-12-23T15:06:21.147Z,24.83
2022-12-23T15:09:31.760Z,25.29
2022-12-23T15:12:43.170Z,24.87
2022-12-23T15:16:02.005Z,25.69
2022-12-23T15:19:24.049Z,29.39
2022-12-23T15:22:35.487Z,30.95
2022-12-23T15:25:48.871Z,29.26
2022-12-23T15:28:54.754Z,30.11
2022-12-23T15:32:05.785Z,32.59
2022-12-23T15:35:26.372Z,30.52
2022-12-23T15:38:40.278Z,30.12
2022-12-23T15:41:49.445Z,29.23
2022-12-23T15:44:57.251Z,34.22
2022-12-23T15:48:08.584Z,39.21
2022-12-23T15:51:49.515Z,34.59
2022-12-23T15:55:03.911Z,48.89
2022-12-23T15:58:11.273Z,26.49
2022-12-23T16:01:22.220Z,27.25
2022-12-23T16:04:33.130Z,26.15
2022-12-23T16:07:44.462Z,28.39
2022-12-23T16:11:06.444Z,30.04
2022-12-23T16:14:40.539Z,30.49
2022-12-23T16:17:47.136Z,28.11
2022-12-23T16:21:00.660Z,26.66
2022-12-23T16:24:12.527Z,27.09
2022-12-23T16:27:22.070Z,27.29
2022-12-23T16:30:35.774Z,28.00
2022-12-23T16:33:47.685Z,26.52
2022-12-23T16:36:56.789Z,26.80
2022-12-23T16:40:05.946Z,29.64
2022-12-23T16:43:13.334Z,26.33
2022-12-23T16:46:23.074Z,36.35
2022-12-23T16:49:34.739Z,47.02
2022-12-23T16:52:43.654Z,28.24
2022-12-23T16:55:55.350Z,28.42
2022-12-23T16:59:04.857Z,30.81
2022-12-23T17:02:28.271Z,34.93
2022-12-23T17:05:34.228Z,34.18
2022-12-23T17:08:43.556Z,32.58
2022-12-23T17:11:53.884Z,50.45
2022-12-23T17:15:01.949Z,35.66
2022-12-23T17:18:15.939Z,42.14
2022-12-23T17:21:27.854Z,31.24
2022-12-23T17:24:36.143Z,32.86
2022-12-23T17:27:45.578Z,31.29
2022-12-23T17:30:58.071Z,32.44
2022-12-23T17:34:11.799Z,32.07
2022-12-23T17:37:19.761Z,34.48
2022-12-23T17:40:28.952Z,40.74
2022-12-23T17:43:34.655Z,36.40
2022-12-23T17:46:41.112Z,34.88
2022-12-23T17:49:48.944Z,33.91
2022-12-23T17:52:56.115Z,35.05
2022-12-23T17:56:04.317Z,59.43
2022-12-23T17:59:10.921Z,42.80
2022-12-23T18:02:32.948Z,53.58
2022-12-23T18:05:39.528Z,37.56
2022-12-23T18:08:45.435Z,39.58
2022-12-23T18:11:56.231Z,40.96
2022-12-23T18:15:02.347Z,39.77
2022-12-23T18:18:26.056Z,39.12
2022-12-23T18:21:35.689Z,38.78
2022-12-23T18:24:42.158Z,39.07
2022-12-23T18:27:52.529Z,38.59
2022-12-23T18:31:01.282Z,41.78
2022-12-23T18:34:07.105Z,41.18
2022-12-23T18:37:14.480Z,36.39
2022-12-23T18:40:32.432Z,50.39
2022-12-23T18:43:42.129Z,48.89
2022-12-23T18:46:50.994Z,60.87
2022-12-23T18:49:58.054Z,31.74
2022-12-23T18:53:04.994Z,30.46
2022-12-23T18:56:21.160Z,27.18
2022-12-23T18:59:31.791Z,27.15
2022-12-23T19:02:38.705Z,27.31
2022-12-23T19:05:44.329Z,25.94
2022-12-23T19:08:51.402Z,25.75
2022-12-23T19:11:58.125Z,26.52
2022-12-23T19:15:10.930Z,43.37
2022-12-23T19:18:18.793Z,37.17
2022-12-23T19:21:28.820Z,24.99
2022-12-23T19:24:36.532Z,26.03
2022-12-23T19:27:47.770Z,25.58
2022-12-23T19:30:56.871Z,24.47
2022-12-23T19:34:03.991Z,23.85
2022-12-23T19:37:14.401Z,53.63
2022-12-23T19:40:24.550Z,26.96
2022-12-23T19:43:30.445Z,24.38
2022-12-23T19:46:40.029Z,24.23
2022-12-23T19:49:51.924Z,30.32
2022-12-23T19:53:01.147Z,23.68
2022-12-23T19:56:11.146Z,29.77
2022-12-23T19:59:19.081Z,35.63
2022-12-23T20:02:28.450Z,26.38
2022-12-23T20:05:37.393Z,30.35
2022-12-23T20:08:44.067Z,25.27
2022-12-23T20:11:53.240Z,24.53
2022-12-23T20:14:59.681Z,27.74
2022-12-23T20:18:12.299Z,30.34
2022-12-23T20:21:20.168Z,24.09
2022-12-23T20:24:27.013Z,20.79
2022-12-23T20:27:33.910Z,27.59
2022-12-23T20:30:42.709Z,46.13
2022-12-23T20:33:53.895Z,29.90
2022-12-23T20:37:04.816Z,39.05
2022-12-23T20:40:17.776Z,30.03
2022-12-23T20:43:24.404Z,31.01
2022-12-23T20:46:30.402Z,25.55
2022-12-23T20:49:40.862Z,24.50
2022-12-23T20:52:47.225Z,24.06
2022-12-23T20:56:02.795Z,24.61
2022-12-23T20:59:08.485Z,24.34
2022-12-23T21:02:16.577Z,19.27
2022-12-23T21:05:25.063Z,19.76
2022-12-23T21:08:31.750Z,20.25
2022-12-23T21:11:41.536Z,19.85
2022-12-23T21:14:48.099Z,17.92
2022-12-23T21:17:53.971Z,17.55
2022-12-23T21:21:11.302Z,17.47
2022-12-23T21:24:20.952Z,17.08
2022-12-23T21:27:27.801Z,17.20
2022-12-23T21:30:37.806Z,19.40
2022-12-23T21:33:48.436Z,18.11
2022-12-23T21:36:56.694Z,15.92
2022-12-23T21:40:03.843Z,15.86
2022-12-23T21:43:09.499Z,16.38
2022-12-23T21:46:23.216Z,15.28
2022-12-23T21:49:28.812Z,14.09
2022-12-23T21:52:40.663Z,14.53
2022-12-23T21:55:46.708Z,15.11
2022-12-23T21:58:54.004Z,14.49
2022-12-23T22:02:01.477Z,15.61
2022-12-23T22:05:10.391Z,15.35
2022-12-23T22:08:22.846Z,16.25
2022-12-23T22:11:34.475Z,18.60
2022-12-23T22:14:40.662Z,18.34
2022-12-23T22:17:47.096Z,17.77
2022-12-23T22:20:53.185Z,23.30
2022-12-23T22:24:04.299Z,21.19
2022-12-23T22:27:10.397Z,17.62
2022-12-23T22:30:18.033Z,17.67
2022-12-23T22:33:25.217Z,16.26
2022-12-23T22:36:32.940Z,16.45
2022-12-23T22:39:44.138Z,16.21
2022-12-23T22:42:50.911Z,16.95
2022-12-23T22:45:59.881Z,19.24
2022-12-23T22:49:07.391Z,15.49
2022-12-23T22:52:13.279Z,21.44
2022-12-23T22:55:26.316Z,17.46
2022-12-23T22:58:34.633Z,37.04
2022-12-23T23:01:41.385Z,21.28
2022-12-23T23:04:50.569Z,20.48
2022-12-23T23:07:57.330Z,20.02
2022-12-23T23:11:08.809Z,23.02
2022-12-23T23:14:16.454Z,24.60
2022-12-23T23:17:22.766Z,19.76
2022-12-23T23:20:29.321Z,22.07
2022-12-23T23:23:35.156Z,20.52
2022-12-23T23:26:44.607Z,20.40
2022-12-23T23:29:50.401Z,21.98
2022-12-23T23:32:56.974Z,23.18
2022-12-23T23:36:03.208Z,20.93
2022-12-23T23:39:09.805Z,21.70
2022-12-23T23:42:18.286Z,26.22
2022-12-23T23:45:24.764Z,23.14
2022-12-23T23:48:33.299Z,22.26
2022-12-23T23:51:40.432Z,27.37
2022-12-23T23:54:46.475Z,21.18
2022-12-23T23:57:55.677Z,20.84
